createdAt,value
2018-12-23T00:01:33.311Z,55.17
2018-12-23T00:04:02.399Z,54.83
2018-12-23T00:06:31.355Z,56.30
2018-12-23T00:09:00.570Z,55.23
2018-12-23T00:11:29.771Z,54.95
2018-12-23T00:13:58.964Z,53.85
2018-12-23T00:16:27.926Z,54.73
2018-12-23T00:18:57.031Z,54.58
2018-12-23T00:21:26.056Z,54.40
2018-12-23T00:23:55.251Z,53.00
2018-12-23T00:26:24.488Z,52.85
2018-12-23T00:28:53.787Z,55.10
2018-12-23T00:31:25.110Z,52.58
2018-12-23T00:33:54.216Z,52.60
2018-12-23T00:36:23.301Z,53.42
2018-12-23T00:38:52.495Z,54.33
2018-12-23T00:41:21.905Z,54.93
2018-12-23T00:43:51.115Z,53.08
2018-12-23T00:46:20.399Z,52.25
2018-12-23T00:48:49.400Z,52.25
2018-12-23T00:51:18.799Z,53.00
2018-12-23T00:53:48.134Z,52.85
2018-12-23T00:56:17.230Z,52.73
2018-12-23T00:58:46.498Z,54.18
2018-12-23T01:01:15.724Z,53.30
2018-12-23T01:03:44.757Z,54.38
2018-12-23T01:06:13.944Z,53.55
2018-12-23T01:08:43.295Z,50.63
2018-12-23T01:11:12.616Z,53.63
2018-12-23T01:13:41.783Z,53.08
2018-12-23T01:16:10.896Z,52.38
2018-12-23T01:18:40.036Z,53.10
2018-12-23T01:21:09.288Z,52.60
2018-12-23T01:23:38.618Z,52.45
2018-12-23T01:26:07.813Z,53.23
2018-12-23T01:28:36.884Z,51.92
2018-12-23T01:31:05.984Z,53.85
2018-12-23T01:33:34.975Z,50.85
2018-12-23T01:36:04.171Z,51.95
2018-12-23T01:38:33.467Z,51.15
2018-12-23T01:41:04.457Z,51.00
2018-12-23T01:43:33.832Z,51.30
2018-12-23T01:46:03.048Z,52.60
2018-12-23T01:48:32.116Z,51.68
2018-12-23T01:51:01.325Z,50.25
2018-12-23T01:53:30.419Z,51.55
2018-12-23T01:55:59.634Z,50.15
2018-12-23T01:58:29.003Z,49.98
2018-12-23T02:00:58.084Z,49.13
2018-12-23T02:03:27.232Z,50.40
2018-12-23T02:05:56.481Z,48.60
2018-12-23T02:08:25.863Z,48.83
2018-12-23T02:10:54.900Z,48.42
2018-12-23T02:13:23.997Z,49.73
2018-12-23T02:15:53.092Z,48.78
2018-12-23T02:18:22.404Z,47.65
2018-12-23T02:20:51.595Z,48.63
2018-12-23T02:23:20.799Z,46.98
2018-12-23T02:25:50.100Z,46.83
2018-12-23T02:28:19.313Z,46.68
2018-12-23T02:30:48.815Z,46.98
2018-12-23T02:33:18.012Z,46.23
2018-12-23T02:35:55.291Z,45.73
2018-12-23T02:38:18.337Z,45.43
2018-12-23T02:40:47.627Z,46.23
2018-12-23T02:43:16.730Z,45.52
2018-12-23T02:45:45.864Z,44.95
2018-12-23T02:48:14.834Z,45.20
2018-12-23T02:50:43.968Z,45.52
2018-12-23T02:53:13.229Z,44.45
2018-12-23T02:55:42.292Z,43.80
2018-12-23T02:58:11.560Z,44.60
2018-12-23T03:00:40.757Z,43.60
2018-12-23T03:03:10.248Z,43.95
2018-12-23T03:05:39.635Z,43.05
2018-12-23T03:08:08.852Z,42.38
2018-12-23T03:10:38.027Z,42.78
2018-12-23T03:13:07.165Z,41.13
2018-12-23T03:15:36.332Z,41.83
2018-12-23T03:18:05.660Z,42.30
2018-12-23T03:20:35.062Z,41.18
2018-12-23T03:23:04.255Z,41.13
2018-12-23T03:25:33.285Z,40.80
2018-12-23T03:28:02.544Z,40.92
2018-12-23T03:30:31.863Z,39.63
2018-12-23T03:33:01.160Z,39.92
2018-12-23T03:35:30.215Z,38.45
2018-12-23T03:37:59.340Z,40.17
2018-12-23T03:40:28.332Z,38.85
2018-12-23T03:42:57.304Z,38.50
2018-12-23T03:45:26.512Z,38.00
2018-12-23T03:47:55.576Z,38.70
2018-12-23T03:50:24.769Z,38.10
2018-12-23T03:52:53.918Z,37.85
2018-12-23T03:55:22.918Z,36.85
2018-12-23T03:57:52.266Z,36.93
2018-12-23T04:00:21.360Z,36.45
2018-12-23T04:02:50.591Z,36.23
2018-12-23T04:05:19.791Z,35.55
2018-12-23T04:07:48.875Z,36.58
2018-12-23T04:10:17.953Z,37.03
2018-12-23T04:12:47.082Z,36.53
2018-12-23T04:15:16.282Z,37.53
2018-12-23T04:17:45.425Z,36.85
2018-12-23T04:20:14.615Z,38.40
2018-12-23T04:22:43.772Z,37.20
2018-12-23T04:25:12.872Z,36.20
2018-12-23T04:27:42.076Z,37.78
2018-12-23T04:30:11.385Z,36.17
2018-12-23T04:32:40.456Z,37.05
2018-12-23T04:35:09.775Z,36.15
2018-12-23T04:37:39.077Z,36.13
2018-12-23T04:40:08.173Z,36.60
2018-12-23T04:42:37.253Z,37.30
2018-12-23T04:45:06.502Z,36.65
2018-12-23T04:47:35.608Z,37.17
2018-12-23T04:50:04.959Z,35.98
2018-12-23T04:52:33.947Z,35.43
2018-12-23T04:55:03.159Z,37.58
2018-12-23T04:57:32.453Z,36.93
2018-12-23T05:00:01.697Z,36.48
2018-12-23T05:02:31.175Z,35.38
2018-12-23T05:05:00.364Z,37.35
2018-12-23T05:07:29.560Z,37.70
2018-12-23T05:10:29.509Z,36.33
2018-12-23T05:12:58.460Z,36.65
2018-12-23T05:15:27.680Z,35.80
2018-12-23T05:17:56.972Z,35.20
2018-12-23T05:20:26.278Z,34.95
2018-12-23T05:22:55.984Z,35.13
2018-12-23T05:25:25.085Z,35.33
2018-12-23T05:27:54.304Z,35.50
2018-12-23T05:30:23.400Z,35.10
2018-12-23T05:32:52.888Z,36.20
2018-12-23T05:35:22.183Z,35.78
2018-12-23T05:38:26.475Z,35.15
2018-12-23T05:40:56.448Z,35.98
2018-12-23T05:43:26.543Z,35.48
2018-12-23T05:45:56.627Z,35.38
2018-12-23T05:48:26.662Z,35.78
2018-12-23T05:50:56.867Z,33.20
2018-12-23T05:53:26.992Z,34.25
2018-12-23T05:55:54.961Z,33.90
2018-12-23T05:58:24.982Z,32.70
2018-12-23T06:00:55.323Z,32.45
2018-12-23T06:03:25.451Z,32.80
2018-12-23T06:05:55.634Z,32.83
2018-12-23T06:08:25.617Z,34.00
2018-12-23T06:10:55.536Z,34.85
2018-12-23T06:13:25.555Z,32.93
2018-12-23T06:15:55.567Z,35.05
2018-12-23T06:18:25.508Z,35.17
2018-12-23T06:20:55.731Z,34.53
2018-12-23T06:23:25.729Z,33.58
2018-12-23T06:25:55.794Z,34.18
2018-12-23T06:28:25.828Z,33.90
2018-12-23T06:30:55.924Z,35.98
2018-12-23T06:33:25.957Z,35.33
2018-12-23T06:35:55.959Z,51.20
2018-12-23T06:38:26.102Z,49.70
2018-12-23T06:40:56.223Z,57.33
2018-12-23T06:43:26.233Z,62.95
2018-12-23T06:45:56.509Z,69.80
2018-12-23T06:48:26.575Z,67.00
2018-12-23T06:50:56.674Z,70.87
2018-12-23T06:53:26.847Z,71.87
2018-12-23T06:55:56.931Z,83.27
2018-12-23T06:58:27.066Z,58.87
2018-12-23T07:00:57.201Z,75.05
2018-12-23T07:03:27.199Z,84.30
2018-12-23T07:05:57.325Z,61.85
2018-12-23T07:08:27.366Z,63.10
2018-12-23T07:10:57.369Z,65.52
2018-12-23T07:13:27.466Z,63.35
2018-12-23T07:15:57.360Z,87.05
2018-12-23T07:18:27.424Z,94.75
2018-12-23T07:20:57.497Z,95.10
2018-12-23T07:23:27.505Z,100.67
2018-12-23T07:25:57.696Z,89.42
2018-12-23T07:28:27.673Z,100.97
2018-12-23T07:30:57.730Z,103.42
2018-12-23T07:33:27.820Z,108.52
2018-12-23T07:35:57.855Z,113.28
2018-12-23T07:38:27.951Z,115.15
2018-12-23T07:40:58.089Z,111.42
2018-12-23T07:43:28.209Z,116.77
2018-12-23T07:45:58.127Z,134.12
2018-12-23T07:48:28.280Z,135.68
2018-12-23T07:50:58.382Z,128.18
2018-12-23T07:53:28.497Z,102.22
2018-12-23T07:55:59.440Z,105.32
2018-12-23T07:58:29.843Z,105.00
2018-12-23T08:01:00.037Z,102.85
2018-12-23T08:03:30.282Z,103.65
2018-12-23T08:06:00.438Z,105.78
2018-12-23T08:08:30.445Z,101.58
2018-12-23T08:11:00.462Z,94.90
2018-12-23T08:13:30.432Z,92.62
2018-12-23T08:16:02.220Z,99.42
2018-12-23T08:18:32.203Z,94.20
2018-12-23T08:21:02.354Z,93.62
2018-12-23T08:23:32.746Z,89.55
2018-12-23T08:26:02.796Z,89.10
2018-12-23T08:28:32.927Z,91.57
2018-12-23T08:31:03.033Z,60.15
2018-12-23T08:33:33.082Z,38.55
2018-12-23T08:36:02.880Z,44.90
2018-12-23T08:38:32.838Z,39.48
2018-12-23T08:41:03.004Z,36.35
2018-12-23T08:43:33.025Z,34.40
2018-12-23T08:46:02.990Z,33.08
2018-12-23T08:48:33.148Z,28.17
2018-12-23T08:51:03.073Z,25.43
2018-12-23T08:53:33.004Z,23.62
2018-12-23T08:56:03.084Z,22.85
2018-12-23T08:58:33.119Z,19.90
2018-12-23T09:01:02.930Z,20.45
2018-12-23T09:03:33.174Z,18.15
2018-12-23T09:06:03.040Z,18.02
2018-12-23T09:08:32.999Z,20.95
2018-12-23T09:11:03.170Z,22.80
2018-12-23T09:13:33.334Z,23.75
2018-12-23T09:16:03.435Z,23.12
2018-12-23T09:18:33.388Z,20.72
2018-12-23T09:21:03.521Z,19.82
2018-12-23T09:23:33.446Z,17.60
2018-12-23T09:26:03.450Z,17.85
2018-12-23T09:28:33.200Z,16.32
2018-12-23T09:31:03.260Z,16.25
2018-12-23T09:33:33.282Z,16.27
2018-12-23T09:36:03.454Z,15.58
2018-12-23T09:38:33.419Z,16.35
2018-12-23T09:41:03.396Z,14.65
2018-12-23T09:43:33.467Z,15.28
2018-12-23T09:46:03.710Z,15.18
2018-12-23T09:48:33.736Z,15.13
2018-12-23T09:51:03.861Z,14.40
2018-12-23T09:53:33.711Z,15.03
2018-12-23T09:56:03.864Z,14.83
2018-12-23T09:58:33.720Z,14.53
2018-12-23T10:01:03.922Z,14.95
2018-12-23T10:03:33.937Z,14.58
2018-12-23T10:06:03.988Z,14.68
2018-12-23T10:08:34.088Z,13.72
2018-12-23T10:11:04.270Z,13.40
2018-12-23T10:13:34.246Z,13.43
2018-12-23T10:16:04.434Z,12.95
2018-12-23T10:18:34.460Z,13.30
2018-12-23T10:21:04.635Z,12.90
2018-12-23T10:23:34.779Z,13.15
2018-12-23T10:26:04.849Z,12.40
2018-12-23T10:28:34.894Z,12.47
2018-12-23T10:31:05.013Z,13.35
2018-12-23T10:33:34.994Z,13.45
2018-12-23T10:36:05.103Z,13.08
2018-12-23T10:38:35.120Z,12.37
2018-12-23T10:41:05.212Z,12.35
2018-12-23T10:43:35.221Z,12.30
2018-12-23T10:46:05.507Z,12.82
2018-12-23T10:48:37.546Z,12.37
2018-12-23T10:51:07.577Z,11.97
2018-12-23T10:53:37.670Z,12.23
2018-12-23T10:56:07.726Z,11.83
2018-12-23T10:58:37.935Z,12.03
2018-12-23T11:01:08.004Z,11.20
2018-12-23T11:03:37.931Z,12.25
2018-12-23T11:06:08.789Z,12.15
2018-12-23T11:08:38.835Z,11.53
2018-12-23T11:11:08.851Z,11.63
2018-12-23T11:13:39.017Z,11.03
2018-12-23T11:16:09.059Z,11.50
2018-12-23T11:18:38.852Z,12.78
2018-12-23T11:21:08.942Z,11.38
2018-12-23T11:23:38.722Z,14.38
2018-12-23T11:26:08.981Z,12.10
2018-12-23T11:28:39.161Z,11.38
2018-12-23T11:31:09.243Z,13.05
2018-12-23T11:33:39.381Z,12.53
2018-12-23T11:36:09.500Z,13.00
2018-12-23T11:38:39.538Z,12.13
2018-12-23T11:41:09.643Z,11.95
2018-12-23T11:43:39.666Z,12.63
2018-12-23T11:46:09.731Z,11.88
2018-12-23T11:48:39.796Z,11.97
2018-12-23T11:51:09.973Z,12.60
2018-12-23T11:53:40.210Z,12.40
2018-12-23T11:56:10.421Z,12.05
2018-12-23T11:58:40.415Z,12.07
2018-12-23T12:01:10.417Z,13.55
2018-12-23T12:03:40.526Z,11.85
2018-12-23T12:06:10.542Z,12.13
2018-12-23T12:08:43.906Z,12.13
2018-12-23T12:11:12.332Z,11.45
2018-12-23T12:13:42.436Z,12.00
2018-12-23T12:16:12.561Z,11.57
2018-12-23T12:18:42.558Z,11.43
2018-12-23T12:21:12.837Z,11.57
2018-12-23T12:23:42.893Z,11.15
2018-12-23T12:26:12.753Z,11.57
2018-12-23T12:28:42.841Z,10.80
2018-12-23T12:31:13.063Z,11.33
2018-12-23T12:33:43.113Z,11.50
2018-12-23T12:36:12.996Z,10.68
2018-12-23T12:38:42.865Z,15.03
2018-12-23T12:41:12.858Z,19.42
2018-12-23T12:43:42.855Z,18.00
2018-12-23T12:46:13.036Z,21.30
2018-12-23T12:48:42.982Z,16.93
2018-12-23T12:51:13.065Z,17.35
2018-12-23T12:53:43.337Z,24.27
2018-12-23T12:56:13.588Z,37.85
2018-12-23T12:58:43.574Z,21.95
2018-12-23T13:01:13.615Z,21.93
2018-12-23T13:03:43.644Z,20.40
2018-12-23T13:06:13.908Z,25.20
2018-12-23T13:08:43.861Z,26.48
2018-12-23T13:11:13.878Z,34.43
2018-12-23T13:13:43.897Z,24.85
2018-12-23T13:16:14.180Z,33.63
2018-12-23T13:18:44.398Z,30.02
2018-12-23T13:21:14.667Z,31.25
2018-12-23T13:23:44.986Z,31.90
2018-12-23T13:26:15.087Z,36.98
2018-12-23T13:28:45.132Z,39.00
2018-12-23T13:31:15.150Z,37.50
2018-12-23T13:33:45.364Z,36.42
2018-12-23T13:36:15.561Z,37.53
2018-12-23T13:38:45.624Z,44.03
2018-12-23T13:41:57.883Z,33.38
2018-12-23T13:45:04.292Z,37.67
2018-12-23T13:48:29.812Z,38.28
2018-12-23T13:51:20.731Z,42.00
2018-12-23T13:54:18.185Z,49.45
2018-12-23T13:57:15.779Z,49.45
2018-12-23T14:00:23.856Z,50.20
2018-12-23T14:03:39.918Z,47.75
2018-12-23T14:06:42.427Z,52.85
2018-12-23T14:09:23.784Z,54.20
2018-12-23T14:11:59.986Z,60.88
2018-12-23T14:14:30.061Z,57.88
2018-12-23T14:17:00.122Z,61.40
2018-12-23T14:19:30.250Z,67.37
2018-12-23T14:22:00.288Z,62.73
2018-12-23T14:24:31.318Z,62.03
2018-12-23T14:27:01.416Z,65.80
2018-12-23T14:29:31.538Z,69.12
2018-12-23T14:32:01.552Z,67.45
2018-12-23T14:34:31.830Z,65.67
2018-12-23T14:37:02.065Z,64.22
2018-12-23T14:39:33.346Z,65.95
2018-12-23T14:42:03.433Z,64.82
2018-12-23T14:44:33.610Z,64.97
2018-12-23T14:47:04.570Z,56.90
2018-12-23T14:49:34.522Z,56.70
2018-12-23T14:52:04.634Z,58.42
2018-12-23T14:54:34.587Z,58.63
2018-12-23T14:57:04.833Z,56.02
2018-12-23T14:59:34.823Z,52.17
2018-12-23T15:02:05.177Z,51.80
2018-12-23T15:04:35.358Z,47.13
2018-12-23T15:07:05.421Z,45.25
2018-12-23T15:09:35.532Z,45.08
2018-12-23T15:12:05.747Z,48.28
2018-12-23T15:14:35.759Z,50.78
2018-12-23T15:17:06.004Z,48.52
2018-12-23T15:19:36.095Z,48.50
2018-12-23T15:22:06.429Z,49.77
2018-12-23T15:24:36.468Z,49.35
2018-12-23T15:27:06.580Z,48.80
2018-12-23T15:29:36.688Z,47.50
2018-12-23T15:32:06.936Z,49.30
2018-12-23T15:34:36.893Z,48.52
2018-12-23T15:37:06.940Z,47.53
2018-12-23T15:39:42.496Z,47.30
2018-12-23T15:42:08.754Z,47.60
2018-12-23T15:44:38.945Z,47.45
2018-12-23T15:47:08.877Z,47.43
2018-12-23T15:49:38.918Z,47.60
2018-12-23T15:52:09.038Z,47.48
2018-12-23T15:54:46.021Z,46.90
2018-12-23T15:57:10.789Z,45.80
2018-12-23T15:59:40.788Z,46.92
2018-12-23T16:02:10.919Z,45.92
2018-12-23T16:04:41.150Z,46.53
2018-12-23T16:07:11.158Z,46.65
2018-12-23T16:09:41.317Z,44.18
2018-12-23T16:12:11.688Z,46.05
2018-12-23T16:14:41.773Z,45.40
2018-12-23T16:17:11.782Z,44.93
2018-12-23T16:19:41.969Z,44.67
2018-12-23T16:22:11.906Z,46.30
2018-12-23T16:24:42.596Z,45.28
2018-12-23T16:27:12.758Z,43.40
2018-12-23T16:29:42.849Z,43.13
2018-12-23T16:32:12.949Z,43.42
2018-12-23T16:34:43.034Z,42.98
2018-12-23T16:37:13.069Z,44.55
2018-12-23T16:39:43.029Z,43.00
2018-12-23T16:42:13.055Z,43.40
2018-12-23T16:44:42.995Z,43.95
2018-12-23T16:47:13.042Z,44.55
2018-12-23T16:49:43.067Z,44.55
2018-12-23T16:52:13.133Z,43.80
2018-12-23T16:54:43.131Z,44.30
2018-12-23T16:57:13.184Z,45.50
2018-12-23T16:59:43.382Z,43.45
2018-12-23T17:02:13.324Z,43.35
2018-12-23T17:04:43.308Z,44.00
2018-12-23T17:07:13.228Z,42.78
2018-12-23T17:09:43.447Z,42.53
2018-12-23T17:12:13.467Z,43.98
2018-12-23T17:14:43.621Z,42.48
2018-12-23T17:17:13.718Z,42.25
2018-12-23T17:19:43.830Z,42.67
2018-12-23T17:22:14.087Z,42.27
2018-12-23T17:24:44.116Z,41.63
2018-12-23T17:27:14.124Z,40.90
2018-12-23T17:29:44.110Z,41.20
2018-12-23T17:32:14.285Z,42.50
2018-12-23T17:34:44.636Z,42.23
2018-12-23T17:37:14.809Z,40.55
2018-12-23T17:39:44.795Z,40.33
2018-12-23T17:42:14.828Z,39.38
2018-12-23T17:44:44.791Z,40.80
2018-12-23T17:47:14.845Z,39.78
2018-12-23T17:49:45.166Z,39.65
2018-12-23T17:52:23.006Z,40.17
2018-12-23T17:54:47.045Z,39.15
2018-12-23T17:57:17.082Z,39.15
2018-12-23T17:59:47.081Z,38.05
2018-12-23T18:02:17.111Z,38.30
2018-12-23T18:04:47.216Z,37.83
2018-12-23T18:07:17.366Z,38.35
2018-12-23T18:09:47.364Z,37.78
2018-12-23T18:12:17.504Z,36.93
2018-12-23T18:14:47.492Z,37.67
2018-12-23T18:17:17.511Z,36.98
2018-12-23T18:19:47.590Z,37.30
2018-12-23T18:22:17.617Z,35.63
2018-12-23T18:24:47.429Z,36.55
2018-12-23T18:27:17.378Z,35.10
2018-12-23T18:29:47.328Z,35.65
2018-12-23T18:32:17.343Z,37.88
2018-12-23T18:34:47.341Z,35.68
2018-12-23T18:37:17.465Z,37.13
2018-12-23T18:39:47.461Z,36.90
2018-12-23T18:42:17.514Z,33.75
2018-12-23T18:44:47.713Z,34.20
2018-12-23T18:47:17.756Z,34.55
2018-12-23T18:49:47.765Z,33.63
2018-12-23T18:52:17.899Z,35.20
2018-12-23T18:54:47.917Z,34.75
2018-12-23T18:57:19.620Z,34.40
2018-12-23T18:59:50.626Z,33.78
2018-12-23T19:02:30.649Z,33.70
2018-12-23T19:05:00.768Z,33.88
2018-12-23T19:07:30.789Z,32.40
2018-12-23T19:10:28.559Z,32.30
2018-12-23T19:13:42.299Z,31.35
2018-12-23T19:16:35.192Z,31.97
2018-12-23T19:19:58.277Z,31.15
2018-12-23T19:23:17.999Z,30.92
2018-12-23T19:26:46.679Z,31.05
2018-12-23T19:29:28.696Z,29.98
2018-12-23T19:32:20.216Z,30.25
2018-12-23T19:35:43.079Z,30.02
2018-12-23T19:39:12.279Z,30.37
2018-12-23T19:42:15.992Z,30.35
2018-12-23T19:45:07.484Z,30.48
2018-12-23T19:48:33.539Z,29.70
2018-12-23T19:51:59.527Z,28.35
2018-12-23T19:55:02.318Z,28.85
2018-12-23T19:58:01.155Z,28.52
2018-12-23T20:01:14.449Z,27.98
2018-12-23T20:04:08.372Z,28.57
2018-12-23T20:07:40.672Z,29.50
2018-12-23T20:10:36.357Z,28.90
2018-12-23T20:13:51.944Z,28.15
2018-12-23T20:16:59.743Z,28.42
2018-12-23T20:20:22.034Z,27.27
2018-12-23T20:23:28.024Z,28.67
2018-12-23T20:26:55.002Z,26.95
2018-12-23T20:29:49.179Z,28.55
2018-12-23T20:32:47.789Z,27.90
2018-12-23T20:36:03.703Z,26.30
2018-12-23T20:39:28.582Z,27.85
2018-12-23T20:42:28.802Z,26.55
2018-12-23T20:45:41.365Z,27.17
2018-12-23T20:49:04.484Z,27.67
2018-12-23T20:52:27.568Z,26.65
2018-12-23T20:55:30.808Z,26.65
2018-12-23T20:58:43.771Z,27.07
2018-12-23T21:02:09.437Z,26.20
2018-12-23T21:05:00.806Z,25.12
2018-12-23T21:08:07.177Z,26.82
2018-12-23T21:11:29.799Z,26.37
2018-12-23T21:14:46.344Z,25.17
2018-12-23T21:18:27.417Z,25.70
2018-12-23T21:21:24.287Z,24.25
2018-12-23T21:24:35.051Z,26.62
2018-12-23T21:27:47.901Z,23.83
2018-12-23T21:30:50.806Z,25.60
2018-12-23T21:33:57.330Z,23.85
2018-12-23T21:36:52.285Z,24.05
2018-12-23T21:39:45.288Z,24.60
2018-12-23T21:42:51.118Z,25.08
2018-12-23T21:45:59.828Z,23.85
2018-12-23T21:48:37.710Z,22.93
2018-12-23T21:51:47.268Z,24.50
2018-12-23T21:55:28.661Z,23.62
2018-12-23T21:58:30.778Z,23.98
2018-12-23T22:01:23.130Z,24.12
2018-12-23T22:04:36.309Z,23.30
2018-12-23T22:07:55.838Z,22.50
2018-12-23T22:10:52.688Z,22.20
2018-12-23T22:13:29.219Z,21.33
2018-12-23T22:15:59.160Z,22.32
2018-12-23T22:18:29.605Z,21.87
2018-12-23T22:20:59.731Z,21.65
2018-12-23T22:23:30.245Z,21.57
2018-12-23T22:26:02.426Z,21.75
2018-12-23T22:28:32.460Z,21.77
2018-12-23T22:31:02.672Z,20.68
2018-12-23T22:33:32.860Z,21.75
2018-12-23T22:36:03.007Z,22.02
2018-12-23T22:38:33.019Z,21.10
2018-12-23T22:41:25.176Z,20.82
2018-12-23T22:43:55.175Z,20.70
2018-12-23T22:46:25.400Z,20.48
2018-12-23T22:48:55.416Z,20.60
2018-12-23T22:51:25.382Z,21.17
2018-12-23T22:53:55.445Z,20.50
2018-12-23T22:56:25.432Z,20.08
2018-12-23T22:58:55.438Z,20.02
2018-12-23T23:01:25.507Z,20.92
2018-12-23T23:03:55.483Z,20.30
2018-12-23T23:06:25.440Z,20.00
2018-12-23T23:08:55.579Z,20.25
2018-12-23T23:11:27.461Z,19.80
2018-12-23T23:13:57.245Z,19.27
2018-12-23T23:16:27.456Z,18.70
2018-12-23T23:18:57.584Z,18.77
2018-12-23T23:21:27.701Z,19.57
2018-12-23T23:23:57.620Z,19.32
2018-12-23T23:26:27.724Z,18.45
2018-12-23T23:28:57.864Z,18.37
2018-12-23T23:31:27.904Z,19.48
2018-12-23T23:33:57.857Z,19.52
2018-12-23T23:36:27.770Z,19.12
2018-12-23T23:38:57.839Z,17.55
2018-12-23T23:41:27.953Z,19.35
2018-12-23T23:43:58.178Z,17.77
2018-12-23T23:46:28.191Z,17.60
2018-12-23T23:48:58.410Z,17.70
2018-12-23T23:51:28.418Z,18.07
2018-12-23T23:53:58.482Z,18.12
2018-12-23T23:56:28.566Z,17.30
2018-12-23T23:58:58.589Z,18.35
